sensor_id;sensor_type;location;lat;lon;timestamp;P1;P2;P0
26185;PMS7003;20067;48.764;9.176;2023-01-24T00:00:34;45.75;41.25;18.50
26185;PMS7003;20067;48.764;9.176;2023-01-24T00:02:59;53.75;42.75;17.50
26185;PMS7003;20067;48.764;9.176;2023-01-24T00:05:25;33.00;29.50;15.50
26185;PMS7003;20067;48.764;9.176;2023-01-24T00:07:51;37.00;34.00;20.00
26185;PMS7003;20067;48.764;9.176;2023-01-24T00:10:16;37.25;34.75;15.00
26185;PMS7003;20067;48.764;9.176;2023-01-24T00:12:42;30.75;27.50;16.50
26185;PMS7003;20067;48.764;9.176;2023-01-24T00:15:08;34.25;31.75;16.00
26185;PMS7003;20067;48.764;9.176;2023-01-24T00:17:34;36.75;33.25;17.50
26185;PMS7003;20067;48.764;9.176;2023-01-24T00:20:00;38.75;33.25;17.00
26185;PMS7003;20067;48.764;9.176;2023-01-24T00:22:26;34.75;34.75;17.00
26185;PMS7003;20067;48.764;9.176;2023-01-24T00:24:52;41.00;37.00;19.00
26185;PMS7003;20067;48.764;9.176;2023-01-24T00:27:17;31.25;29.50;15.50
26185;PMS7003;20067;48.764;9.176;2023-01-24T00:29:43;39.00;32.25;15.50
26185;PMS7003;20067;48.764;9.176;2023-01-24T00:32:09;35.25;30.25;13.50
26185;PMS7003;20067;48.764;9.176;2023-01-24T00:34:35;30.75;28.25;15.50
26185;PMS7003;20067;48.764;9.176;2023-01-24T00:37:00;46.50;36.25;16.50
26185;PMS7003;20067;48.764;9.176;2023-01-24T00:39:26;30.25;24.00;13.00
26185;PMS7003;20067;48.764;9.176;2023-01-24T00:41:52;36.75;30.75;15.50
26185;PMS7003;20067;48.764;9.176;2023-01-24T00:44:17;33.50;30.50;16.00
26185;PMS7003;20067;48.764;9.176;2023-01-24T00:46:43;41.75;35.25;18.00
26185;PMS7003;20067;48.764;9.176;2023-01-24T00:49:09;32.75;31.00;15.00
26185;PMS7003;20067;48.764;9.176;2023-01-24T00:51:34;34.00;29.00;14.50
26185;PMS7003;20067;48.764;9.176;2023-01-24T00:54:00;36.25;30.00;15.50
26185;PMS7003;20067;48.764;9.176;2023-01-24T00:56:26;29.25;27.75;15.00
26185;PMS7003;20067;48.764;9.176;2023-01-24T00:58:52;35.75;30.25;15.00
26185;PMS7003;20067;48.764;9.176;2023-01-24T01:01:18;31.75;29.00;14.50
26185;PMS7003;20067;48.764;9.176;2023-01-24T01:03:44;33.25;31.50;15.00
26185;PMS7003;20067;48.764;9.176;2023-01-24T01:06:12;27.25;25.25;13.00
26185;PMS7003;20067;48.764;9.176;2023-01-24T01:08:39;38.25;27.50;15.00
26185;PMS7003;20067;48.764;9.176;2023-01-24T01:11:05;31.75;27.50;14.00
26185;PMS7003;20067;48.764;9.176;2023-01-24T01:13:30;31.50;30.50;15.00
26185;PMS7003;20067;48.764;9.176;2023-01-24T01:16:00;33.50;28.50;14.00
26185;PMS7003;20067;48.764;9.176;2023-01-24T01:18:36;33.00;31.50;15.50
26185;PMS7003;20067;48.764;9.176;2023-01-24T01:21:02;29.75;28.50;13.00
26185;PMS7003;20067;48.764;9.176;2023-01-24T01:23:29;33.00;29.50;15.00
26185;PMS7003;20067;48.764;9.176;2023-01-24T01:25:58;33.25;32.75;14.00
26185;PMS7003;20067;48.764;9.176;2023-01-24T01:28:28;36.50;31.50;16.50
26185;PMS7003;20067;48.764;9.176;2023-01-24T01:30:54;36.75;34.25;16.00
26185;PMS7003;20067;48.764;9.176;2023-01-24T01:33:21;33.75;33.75;15.00
26185;PMS7003;20067;48.764;9.176;2023-01-24T01:35:47;37.75;29.75;16.50
26185;PMS7003;20067;48.764;9.176;2023-01-24T01:38:14;30.75;25.00;13.00
26185;PMS7003;20067;48.764;9.176;2023-01-24T01:40:40;27.50;26.25;11.50
26185;PMS7003;20067;48.764;9.176;2023-01-24T01:43:16;37.00;29.75;15.00
26185;PMS7003;20067;48.764;9.176;2023-01-24T01:45:47;40.25;34.75;15.00
26185;PMS7003;20067;48.764;9.176;2023-01-24T01:50:53;26.00;23.00;13.50
26185;PMS7003;20067;48.764;9.176;2023-01-24T01:53:23;32.50;31.50;16.00
26185;PMS7003;20067;48.764;9.176;2023-01-24T01:55:55;31.50;29.00;17.50
26185;PMS7003;20067;48.764;9.176;2023-01-24T01:58:26;33.75;26.00;15.00
26185;PMS7003;20067;48.764;9.176;2023-01-24T02:00:52;29.25;29.25;14.00
26185;PMS7003;20067;48.764;9.176;2023-01-24T02:03:20;34.75;31.25;15.00
26185;PMS7003;20067;48.764;9.176;2023-01-24T02:06:27;33.50;29.00;15.00
26185;PMS7003;20067;48.764;9.176;2023-01-24T02:08:55;32.75;28.50;13.00
26185;PMS7003;20067;48.764;9.176;2023-01-24T02:11:22;42.75;32.75;13.00
26185;PMS7003;20067;48.764;9.176;2023-01-24T02:14:06;31.25;28.25;15.00
26185;PMS7003;20067;48.764;9.176;2023-01-24T02:16:53;37.00;31.00;16.00
26185;PMS7003;20067;48.764;9.176;2023-01-24T02:19:24;37.25;32.75;16.50
26185;PMS7003;20067;48.764;9.176;2023-01-24T02:22:03;31.75;26.50;15.00
26185;PMS7003;20067;48.764;9.176;2023-01-24T02:24:39;36.25;30.25;14.00
26185;PMS7003;20067;48.764;9.176;2023-01-24T02:27:10;31.25;26.00;13.00
26185;PMS7003;20067;48.764;9.176;2023-01-24T02:29:36;33.00;30.00;14.50
26185;PMS7003;20067;48.764;9.176;2023-01-24T02:32:03;37.75;29.25;13.50
26185;PMS7003;20067;48.764;9.176;2023-01-24T02:34:32;34.00;31.25;15.00
26185;PMS7003;20067;48.764;9.176;2023-01-24T02:36:59;41.75;31.75;16.50
26185;PMS7003;20067;48.764;9.176;2023-01-24T02:39:32;36.50;29.00;13.00
26185;PMS7003;20067;48.764;9.176;2023-01-24T02:42:06;29.50;28.00;13.50
26185;PMS7003;20067;48.764;9.176;2023-01-24T02:44:44;40.75;30.25;16.00
26185;PMS7003;20067;48.764;9.176;2023-01-24T02:47:16;34.25;26.75;13.00
26185;PMS7003;20067;48.764;9.176;2023-01-24T02:49:42;36.00;32.50;16.50
26185;PMS7003;20067;48.764;9.176;2023-01-24T02:52:08;32.75;30.25;16.00
26185;PMS7003;20067;48.764;9.176;2023-01-24T02:54:53;26.75;24.75;9.50
26185;PMS7003;20067;48.764;9.176;2023-01-24T02:57:19;29.25;27.00;14.50
26185;PMS7003;20067;48.764;9.176;2023-01-24T03:00:04;32.25;28.25;15.00
26185;PMS7003;20067;48.764;9.176;2023-01-24T03:02:31;34.25;32.25;15.00
26185;PMS7003;20067;48.764;9.176;2023-01-24T03:04:57;32.75;29.50;14.00
26185;PMS7003;20067;48.764;9.176;2023-01-24T03:07:22;28.25;25.75;11.50
26185;PMS7003;20067;48.764;9.176;2023-01-24T03:09:48;35.75;32.75;16.50
26185;PMS7003;20067;48.764;9.176;2023-01-24T03:12:14;32.00;29.75;15.50
26185;PMS7003;20067;48.764;9.176;2023-01-24T03:14:59;38.00;29.00;15.00
26185;PMS7003;20067;48.764;9.176;2023-01-24T03:17:43;34.50;29.25;14.00
26185;PMS7003;20067;48.764;9.176;2023-01-24T03:20:27;30.25;30.00;16.50
26185;PMS7003;20067;48.764;9.176;2023-01-24T03:23:12;32.25;29.50;15.00
26185;PMS7003;20067;48.764;9.176;2023-01-24T03:25:56;39.00;36.00;18.50
26185;PMS7003;20067;48.764;9.176;2023-01-24T03:28:41;41.00;31.50;14.00
26185;PMS7003;20067;48.764;9.176;2023-01-24T03:31:25;34.75;30.00;15.50
26185;PMS7003;20067;48.764;9.176;2023-01-24T03:34:09;36.00;32.50;17.00
26185;PMS7003;20067;48.764;9.176;2023-01-24T03:36:53;39.25;32.25;16.00
26185;PMS7003;20067;48.764;9.176;2023-01-24T03:39:19;34.75;30.00;15.50
26185;PMS7003;20067;48.764;9.176;2023-01-24T03:42:03;38.00;30.50;17.00
26185;PMS7003;20067;48.764;9.176;2023-01-24T03:44:29;27.50;25.00;13.00
26185;PMS7003;20067;48.764;9.176;2023-01-24T03:46:54;33.25;32.25;15.00
26185;PMS7003;20067;48.764;9.176;2023-01-24T03:49:20;34.75;26.50;14.75
26185;PMS7003;20067;48.764;9.176;2023-01-24T03:52:04;37.25;34.25;18.00
26185;PMS7003;20067;48.764;9.176;2023-01-24T03:54:48;43.00;36.00;17.50
26185;PMS7003;20067;48.764;9.176;2023-01-24T03:57:14;40.25;33.75;18.75
26185;PMS7003;20067;48.764;9.176;2023-01-24T03:59:39;29.50;29.50;15.00
26185;PMS7003;20067;48.764;9.176;2023-01-24T04:02:05;34.50;29.00;13.50
26185;PMS7003;20067;48.764;9.176;2023-01-24T04:04:30;37.25;31.25;15.00
26185;PMS7003;20067;48.764;9.176;2023-01-24T04:07:17;42.00;35.75;18.75
26185;PMS7003;20067;48.764;9.176;2023-01-24T04:09:43;46.00;39.50;19.25
26185;PMS7003;20067;48.764;9.176;2023-01-24T04:12:08;39.75;37.25;20.50
26185;PMS7003;20067;48.764;9.176;2023-01-24T04:14:34;36.50;32.00;18.00
26185;PMS7003;20067;48.764;9.176;2023-01-24T04:17:00;38.75;34.75;17.00
26185;PMS7003;20067;48.764;9.176;2023-01-24T04:19:25;31.00;29.25;16.75
26185;PMS7003;20067;48.764;9.176;2023-01-24T04:21:51;43.75;36.50;15.50
26185;PMS7003;20067;48.764;9.176;2023-01-24T04:24:16;42.00;35.50;17.00
26185;PMS7003;20067;48.764;9.176;2023-01-24T04:26:42;41.75;33.00;17.00
26185;PMS7003;20067;48.764;9.176;2023-01-24T04:29:08;28.75;27.25;14.00
26185;PMS7003;20067;48.764;9.176;2023-01-24T04:31:33;37.50;33.50;19.00
26185;PMS7003;20067;48.764;9.176;2023-01-24T04:33:59;34.50;31.00;17.50
26185;PMS7003;20067;48.764;9.176;2023-01-24T04:36:25;41.00;37.25;17.00
26185;PMS7003;20067;48.764;9.176;2023-01-24T04:38:50;41.50;37.25;19.50
26185;PMS7003;20067;48.764;9.176;2023-01-24T04:41:16;41.75;32.50;21.00
26185;PMS7003;20067;48.764;9.176;2023-01-24T04:43:42;39.75;35.00;17.00
26185;PMS7003;20067;48.764;9.176;2023-01-24T04:46:07;37.00;33.00;17.00
26185;PMS7003;20067;48.764;9.176;2023-01-24T04:48:33;44.25;39.50;19.25
26185;PMS7003;20067;48.764;9.176;2023-01-24T04:50:59;37.00;32.00;13.50
26185;PMS7003;20067;48.764;9.176;2023-01-24T04:53:25;39.25;36.25;18.75
26185;PMS7003;20067;48.764;9.176;2023-01-24T04:55:51;41.25;32.75;16.75
26185;PMS7003;20067;48.764;9.176;2023-01-24T04:58:17;39.75;38.25;17.25
26185;PMS7003;20067;48.764;9.176;2023-01-24T05:00:43;46.00;41.25;17.50
26185;PMS7003;20067;48.764;9.176;2023-01-24T05:03:08;42.75;36.00;16.50
26185;PMS7003;20067;48.764;9.176;2023-01-24T05:05:34;36.75;32.50;15.50
26185;PMS7003;20067;48.764;9.176;2023-01-24T05:07:59;40.25;39.75;16.75
26185;PMS7003;20067;48.764;9.176;2023-01-24T05:10:25;43.75;40.25;15.75
26185;PMS7003;20067;48.764;9.176;2023-01-24T05:12:52;46.00;39.25;18.00
26185;PMS7003;20067;48.764;9.176;2023-01-24T05:15:18;40.00;38.50;17.00
26185;PMS7003;20067;48.764;9.176;2023-01-24T05:17:44;40.50;35.00;16.00
26185;PMS7003;20067;48.764;9.176;2023-01-24T05:20:10;47.25;39.25;18.00
26185;PMS7003;20067;48.764;9.176;2023-01-24T05:22:36;42.25;38.00;20.50
26185;PMS7003;20067;48.764;9.176;2023-01-24T05:25:02;40.75;36.75;15.25
26185;PMS7003;20067;48.764;9.176;2023-01-24T05:27:27;35.50;32.75;18.50
26185;PMS7003;20067;48.764;9.176;2023-01-24T05:29:53;37.50;34.50;18.75
26185;PMS7003;20067;48.764;9.176;2023-01-24T05:32:19;33.75;33.00;19.25
26185;PMS7003;20067;48.764;9.176;2023-01-24T05:34:44;42.25;35.75;19.75
26185;PMS7003;20067;48.764;9.176;2023-01-24T05:37:10;37.00;35.00;19.00
26185;PMS7003;20067;48.764;9.176;2023-01-24T05:39:35;40.75;39.25;19.75
26185;PMS7003;20067;48.764;9.176;2023-01-24T05:42:01;39.25;38.25;22.50
26185;PMS7003;20067;48.764;9.176;2023-01-24T05:44:26;37.00;35.50;18.50
26185;PMS7003;20067;48.764;9.176;2023-01-24T05:46:52;31.00;31.00;17.00
26185;PMS7003;20067;48.764;9.176;2023-01-24T05:49:17;35.50;29.50;16.00
26185;PMS7003;20067;48.764;9.176;2023-01-24T05:51:43;48.50;39.00;21.75
26185;PMS7003;20067;48.764;9.176;2023-01-24T05:54:08;38.50;33.75;18.25
26185;PMS7003;20067;48.764;9.176;2023-01-24T05:56:34;40.75;39.00;21.25
26185;PMS7003;20067;48.764;9.176;2023-01-24T05:59:00;46.25;40.75;23.00
26185;PMS7003;20067;48.764;9.176;2023-01-24T06:01:26;41.75;38.25;20.75
26185;PMS7003;20067;48.764;9.176;2023-01-24T06:03:52;47.00;43.00;25.75
26185;PMS7003;20067;48.764;9.176;2023-01-24T06:06:22;42.25;38.25;22.00
26185;PMS7003;20067;48.764;9.176;2023-01-24T06:08:49;42.00;38.00;19.00
26185;PMS7003;20067;48.764;9.176;2023-01-24T06:11:16;45.75;40.00;22.50
26185;PMS7003;20067;48.764;9.176;2023-01-24T06:13:43;36.75;32.75;19.00
26185;PMS7003;20067;48.764;9.176;2023-01-24T06:16:10;53.75;40.75;21.00
26185;PMS7003;20067;48.764;9.176;2023-01-24T06:18:38;44.00;37.25;20.00
26185;PMS7003;20067;48.764;9.176;2023-01-24T06:21:08;33.25;31.25;17.25
26185;PMS7003;20067;48.764;9.176;2023-01-24T06:23:40;41.25;36.00;21.00
26185;PMS7003;20067;48.764;9.176;2023-01-24T06:26:07;38.00;36.75;20.50
26185;PMS7003;20067;48.764;9.176;2023-01-24T06:28:35;46.75;34.75;18.00
26185;PMS7003;20067;48.764;9.176;2023-01-24T06:39:20;50.50;39.75;20.75
26185;PMS7003;20067;48.764;9.176;2023-01-24T06:41:47;40.75;32.00;19.00
26185;PMS7003;20067;48.764;9.176;2023-01-24T06:44:13;38.75;36.75;22.50
26185;PMS7003;20067;48.764;9.176;2023-01-24T06:46:39;35.75;35.00;19.00
26185;PMS7003;20067;48.764;9.176;2023-01-24T06:49:05;43.75;37.00;19.00
26185;PMS7003;20067;48.764;9.176;2023-01-24T06:51:31;53.25;40.50;21.00
26185;PMS7003;20067;48.764;9.176;2023-01-24T06:53:57;45.75;37.50;19.00
26185;PMS7003;20067;48.764;9.176;2023-01-24T06:56:24;40.00;34.00;19.00
26185;PMS7003;20067;48.764;9.176;2023-01-24T06:58:49;38.75;36.50;19.00
26185;PMS7003;20067;48.764;9.176;2023-01-24T07:01:15;35.75;32.75;19.00
26185;PMS7003;20067;48.764;9.176;2023-01-24T07:03:40;43.25;38.75;23.00
26185;PMS7003;20067;48.764;9.176;2023-01-24T07:06:06;40.00;36.00;20.00
26185;PMS7003;20067;48.764;9.176;2023-01-24T07:08:32;51.25;42.25;19.50
26185;PMS7003;20067;48.764;9.176;2023-01-24T07:10:57;38.50;37.00;20.00
26185;PMS7003;20067;48.764;9.176;2023-01-24T07:13:23;33.00;30.50;16.50
26185;PMS7003;20067;48.764;9.176;2023-01-24T07:15:49;49.00;40.50;18.50
26185;PMS7003;20067;48.764;9.176;2023-01-24T07:18:18;47.50;38.25;20.25
26185;PMS7003;20067;48.764;9.176;2023-01-24T07:20:44;42.25;40.25;19.75
26185;PMS7003;20067;48.764;9.176;2023-01-24T07:23:20;43.00;41.00;23.00
26185;PMS7003;20067;48.764;9.176;2023-01-24T07:25:49;45.50;39.25;22.75
26185;PMS7003;20067;48.764;9.176;2023-01-24T07:28:16;48.75;41.75;20.25
26185;PMS7003;20067;48.764;9.176;2023-01-24T07:30:42;58.50;54.75;29.25
26185;PMS7003;20067;48.764;9.176;2023-01-24T07:33:10;52.75;44.25;25.00
26185;PMS7003;20067;48.764;9.176;2023-01-24T07:35:37;48.00;43.25;27.00
26185;PMS7003;20067;48.764;9.176;2023-01-24T07:38:02;42.00;42.00;26.75
26185;PMS7003;20067;48.764;9.176;2023-01-24T07:40:28;46.50;35.75;21.00
26185;PMS7003;20067;48.764;9.176;2023-01-24T07:42:53;42.25;34.75;18.00
26185;PMS7003;20067;48.764;9.176;2023-01-24T07:45:19;41.75;37.75;19.50
26185;PMS7003;20067;48.764;9.176;2023-01-24T07:47:45;45.25;39.00;21.00
26185;PMS7003;20067;48.764;9.176;2023-01-24T07:50:11;39.75;29.75;15.00
26185;PMS7003;20067;48.764;9.176;2023-01-24T07:52:36;33.50;32.00;17.50
26185;PMS7003;20067;48.764;9.176;2023-01-24T07:55:02;43.50;37.25;21.00
26185;PMS7003;20067;48.764;9.176;2023-01-24T07:57:28;44.50;34.50;17.25
26185;PMS7003;20067;48.764;9.176;2023-01-24T07:59:54;39.75;39.75;21.00
26185;PMS7003;20067;48.764;9.176;2023-01-24T08:02:19;39.50;33.75;19.00
26185;PMS7003;20067;48.764;9.176;2023-01-24T08:04:45;41.00;38.50;19.50
26185;PMS7003;20067;48.764;9.176;2023-01-24T08:07:10;41.25;37.00;21.25
26185;PMS7003;20067;48.764;9.176;2023-01-24T08:09:42;49.00;44.00;20.00
26185;PMS7003;20067;48.764;9.176;2023-01-24T08:12:08;57.00;52.50;22.50
26185;PMS7003;20067;48.764;9.176;2023-01-24T08:14:33;46.00;41.00;19.00
26185;PMS7003;20067;48.764;9.176;2023-01-24T08:16:59;52.50;45.50;20.00
26185;PMS7003;20067;48.764;9.176;2023-01-24T08:19:25;57.50;55.00;23.00
26185;PMS7003;20067;48.764;9.176;2023-01-24T08:21:50;44.25;42.75;21.00
26185;PMS7003;20067;48.764;9.176;2023-01-24T08:24:16;39.75;38.75;19.50
26185;PMS7003;20067;48.764;9.176;2023-01-24T08:26:42;44.75;39.75;18.25
26185;PMS7003;20067;48.764;9.176;2023-01-24T08:29:11;42.25;38.25;17.00
26185;PMS7003;20067;48.764;9.176;2023-01-24T08:31:37;33.75;30.25;17.00
26185;PMS7003;20067;48.764;9.176;2023-01-24T08:34:03;38.25;33.00;17.50
26185;PMS7003;20067;48.764;9.176;2023-01-24T08:36:29;37.50;32.00;19.00
26185;PMS7003;20067;48.764;9.176;2023-01-24T08:38:54;40.00;35.00;18.00
26185;PMS7003;20067;48.764;9.176;2023-01-24T08:41:20;38.75;33.75;17.00
26185;PMS7003;20067;48.764;9.176;2023-01-24T08:43:45;45.50;37.75;21.00
26185;PMS7003;20067;48.764;9.176;2023-01-24T08:46:11;37.25;36.25;17.50
26185;PMS7003;20067;48.764;9.176;2023-01-24T08:48:36;38.50;36.00;20.00
26185;PMS7003;20067;48.764;9.176;2023-01-24T08:51:03;46.25;35.25;17.50
26185;PMS7003;20067;48.764;9.176;2023-01-24T08:53:29;38.00;35.25;19.00
26185;PMS7003;20067;48.764;9.176;2023-01-24T08:55:55;38.00;34.75;19.00
26185;PMS7003;20067;48.764;9.176;2023-01-24T08:58:20;44.00;34.75;19.50
26185;PMS7003;20067;48.764;9.176;2023-01-24T09:00:46;40.50;32.75;17.50
26185;PMS7003;20067;48.764;9.176;2023-01-24T09:05:47;30.00;24.50;13.00
26185;PMS7003;20067;48.764;9.176;2023-01-24T09:08:13;37.25;34.00;17.00
26185;PMS7003;20067;48.764;9.176;2023-01-24T09:10:38;43.75;33.25;17.50
26185;PMS7003;20067;48.764;9.176;2023-01-24T09:13:04;39.75;39.75;18.00
26185;PMS7003;20067;48.764;9.176;2023-01-24T09:15:30;37.75;33.00;15.00
26185;PMS7003;20067;48.764;9.176;2023-01-24T09:17:56;46.25;33.25;15.00
26185;PMS7003;20067;48.764;9.176;2023-01-24T09:20:25;46.25;35.75;19.00
26185;PMS7003;20067;48.764;9.176;2023-01-24T09:22:50;36.75;34.50;15.50
26185;PMS7003;20067;48.764;9.176;2023-01-24T09:25:16;41.25;37.75;20.00
26185;PMS7003;20067;48.764;9.176;2023-01-24T09:27:41;34.25;32.00;15.50
26185;PMS7003;20067;48.764;9.176;2023-01-24T09:30:07;39.25;35.50;19.00
26185;PMS7003;20067;48.764;9.176;2023-01-24T09:32:34;43.00;39.00;17.00
26185;PMS7003;20067;48.764;9.176;2023-01-24T09:35:01;35.00;31.50;17.50
26185;PMS7003;20067;48.764;9.176;2023-01-24T09:37:27;36.75;29.00;15.50
26185;PMS7003;20067;48.764;9.176;2023-01-24T09:39:52;30.50;29.50;14.50
26185;PMS7003;20067;48.764;9.176;2023-01-24T09:47:45;33.75;30.75;16.50
26185;PMS7003;20067;48.764;9.176;2023-01-24T09:50:16;32.75;29.25;15.50
26185;PMS7003;20067;48.764;9.176;2023-01-24T09:52:51;35.00;31.25;15.00
26185;PMS7003;20067;48.764;9.176;2023-01-24T10:00:43;36.50;31.25;13.50
26185;PMS7003;20067;48.764;9.176;2023-01-24T10:03:20;37.50;32.00;14.50
26185;PMS7003;20067;48.764;9.176;2023-01-24T10:05:48;33.75;31.75;14.00
26185;PMS7003;20067;48.764;9.176;2023-01-24T10:10:53;31.50;28.00;11.50
26185;PMS7003;20067;48.764;9.176;2023-01-24T10:24:06;31.25;28.75;13.50
26185;PMS7003;20067;48.764;9.176;2023-01-24T10:26:38;26.50;24.75;12.00
26185;PMS7003;20067;48.764;9.176;2023-01-24T10:29:13;35.25;32.50;14.50
26185;PMS7003;20067;48.764;9.176;2023-01-24T10:32:04;32.00;27.75;9.25
26185;PMS7003;20067;48.764;9.176;2023-01-24T10:34:44;34.50;30.75;13.00
26185;PMS7003;20067;48.764;9.176;2023-01-24T10:37:23;29.50;22.50;9.00
26185;PMS7003;20067;48.764;9.176;2023-01-24T10:39:51;34.50;28.25;13.00
26185;PMS7003;20067;48.764;9.176;2023-01-24T10:42:24;29.50;27.50;14.50
26185;PMS7003;20067;48.764;9.176;2023-01-24T10:44:55;28.00;26.00;13.00
26185;PMS7003;20067;48.764;9.176;2023-01-24T10:47:39;22.50;21.25;11.50
26185;PMS7003;20067;48.764;9.176;2023-01-24T10:50:21;27.25;25.75;11.00
26185;PMS7003;20067;48.764;9.176;2023-01-24T10:52:49;28.50;26.25;11.00
26185;PMS7003;20067;48.764;9.176;2023-01-24T10:55:23;34.25;27.25;13.50
26185;PMS7003;20067;48.764;9.176;2023-01-24T10:57:50;30.25;23.75;12.00
26185;PMS7003;20067;48.764;9.176;2023-01-24T11:00:24;24.50;24.50;9.50
26185;PMS7003;20067;48.764;9.176;2023-01-24T11:02:57;37.00;30.50;11.00
26185;PMS7003;20067;48.764;9.176;2023-01-24T11:05:25;28.50;27.50;11.00
26185;PMS7003;20067;48.764;9.176;2023-01-24T11:08:00;31.75;27.00;11.00
26185;PMS7003;20067;48.764;9.176;2023-01-24T11:10:30;30.50;22.75;11.00
26185;PMS7003;20067;48.764;9.176;2023-01-24T11:13:01;27.25;25.00;12.50
26185;PMS7003;20067;48.764;9.176;2023-01-24T11:15:47;33.00;29.25;10.00
26185;PMS7003;20067;48.764;9.176;2023-01-24T11:18:19;22.50;22.50;13.00
26185;PMS7003;20067;48.764;9.176;2023-01-24T11:20:48;22.25;22.00;11.00
26185;PMS7003;20067;48.764;9.176;2023-01-24T11:23:30;22.75;19.00;9.00
26185;PMS7003;20067;48.764;9.176;2023-01-24T11:28:26;29.50;23.50;11.00
26185;PMS7003;20067;48.764;9.176;2023-01-24T11:30:58;33.50;28.00;15.00
26185;PMS7003;20067;48.764;9.176;2023-01-24T11:36:16;27.00;23.75;9.50
26185;PMS7003;20067;48.764;9.176;2023-01-24T11:38:46;29.75;25.75;13.50
26185;PMS7003;20067;48.764;9.176;2023-01-24T11:46:51;27.50;24.50;12.00
26185;PMS7003;20067;48.764;9.176;2023-01-24T11:49:35;31.75;28.25;13.00
26185;PMS7003;20067;48.764;9.176;2023-01-24T11:54:41;25.75;22.50;12.50
26185;PMS7003;20067;48.764;9.176;2023-01-24T12:05:24;36.25;26.50;13.00
26185;PMS7003;20067;48.764;9.176;2023-01-24T12:10:46;28.25;24.00;11.00
26185;PMS7003;20067;48.764;9.176;2023-01-24T12:17:20;30.50;25.00;9.00
26185;PMS7003;20067;48.764;9.176;2023-01-24T12:22:22;26.00;25.50;12.00
26185;PMS7003;20067;48.764;9.176;2023-01-24T12:25:50;32.50;27.25;11.00
26185;PMS7003;20067;48.764;9.176;2023-01-24T12:27:44;24.25;20.75;9.00
26185;PMS7003;20067;48.764;9.176;2023-01-24T12:30:15;24.75;19.25;9.00
26185;PMS7003;20067;48.764;9.176;2023-01-24T12:36:01;33.75;27.00;15.00
26185;PMS7003;20067;48.764;9.176;2023-01-24T12:38:46;33.75;28.00;13.00
26185;PMS7003;20067;48.764;9.176;2023-01-24T12:43:49;27.00;23.25;11.50
26185;PMS7003;20067;48.764;9.176;2023-01-24T12:46:29;34.75;26.25;11.00
26185;PMS7003;20067;48.764;9.176;2023-01-24T12:52:03;22.50;21.25;9.50
26185;PMS7003;20067;48.764;9.176;2023-01-24T12:54:53;32.00;25.75;13.00
26185;PMS7003;20067;48.764;9.176;2023-01-24T12:57:30;30.50;26.50;13.00
26185;PMS7003;20067;48.764;9.176;2023-01-24T13:00:05;32.25;31.00;12.50
26185;PMS7003;20067;48.764;9.176;2023-01-24T13:05:55;34.50;31.00;13.00
26185;PMS7003;20067;48.764;9.176;2023-01-24T13:13:40;32.00;30.50;9.50
26185;PMS7003;20067;48.764;9.176;2023-01-24T13:30:30;37.00;30.00;15.00
26185;PMS7003;20067;48.764;9.176;2023-01-24T13:33:18;41.75;30.25;16.00
26185;PMS7003;20067;48.764;9.176;2023-01-24T13:35:51;33.75;28.25;14.50
26185;PMS7003;20067;48.764;9.176;2023-01-24T13:38:25;26.25;23.75;10.50
26185;PMS7003;20067;48.764;9.176;2023-01-24T13:41:01;29.50;27.00;15.00
26185;PMS7003;20067;48.764;9.176;2023-01-24T13:46:13;26.75;26.75;14.50
26185;PMS7003;20067;48.764;9.176;2023-01-24T13:56:31;25.50;23.50;10.50
26185;PMS7003;20067;48.764;9.176;2023-01-24T13:58:57;30.50;25.25;11.00
26185;PMS7003;20067;48.764;9.176;2023-01-24T14:01:24;27.00;26.50;14.00
26185;PMS7003;20067;48.764;9.176;2023-01-24T14:03:55;27.25;22.25;10.50
26185;PMS7003;20067;48.764;9.176;2023-01-24T14:06:43;31.50;24.75;11.00
26185;PMS7003;20067;48.764;9.176;2023-01-24T14:09:18;31.25;27.50;15.00
26185;PMS7003;20067;48.764;9.176;2023-01-24T14:12:20;33.25;29.75;13.00
26185;PMS7003;20067;48.764;9.176;2023-01-24T14:20:21;31.00;25.00;14.00
26185;PMS7003;20067;48.764;9.176;2023-01-24T14:23:14;25.75;23.25;12.00
26185;PMS7003;20067;48.764;9.176;2023-01-24T14:25:50;31.25;25.25;13.00
26185;PMS7003;20067;48.764;9.176;2023-01-24T14:28:18;25.75;25.00;11.50
26185;PMS7003;20067;48.764;9.176;2023-01-24T14:34:07;27.00;25.50;12.50
26185;PMS7003;20067;48.764;9.176;2023-01-24T14:36:49;28.50;25.50;11.00
26185;PMS7003;20067;48.764;9.176;2023-01-24T14:39:26;23.50;23.00;10.00
26185;PMS7003;20067;48.764;9.176;2023-01-24T14:41:59;25.25;24.75;13.00
26185;PMS7003;20067;48.764;9.176;2023-01-24T14:44:31;33.25;31.25;13.00
26185;PMS7003;20067;48.764;9.176;2023-01-24T14:51:52;29.00;27.50;13.00
26185;PMS7003;20067;48.764;9.176;2023-01-24T14:54:18;41.75;36.50;16.00
26185;PMS7003;20067;48.764;9.176;2023-01-24T14:56:46;35.25;32.75;16.00
26185;PMS7003;20067;48.764;9.176;2023-01-24T14:59:11;36.75;36.75;15.00
26185;PMS7003;20067;48.764;9.176;2023-01-24T15:01:38;32.75;29.75;13.50
26185;PMS7003;20067;48.764;9.176;2023-01-24T15:04:04;32.25;29.75;14.00
26185;PMS7003;20067;48.764;9.176;2023-01-24T15:06:30;30.75;26.75;12.00
26185;PMS7003;20067;48.764;9.176;2023-01-24T15:08:58;30.75;29.25;15.00
26185;PMS7003;20067;48.764;9.176;2023-01-24T15:11:27;29.25;26.25;13.00
26185;PMS7003;20067;48.764;9.176;2023-01-24T15:14:14;30.25;26.75;13.00
26185;PMS7003;20067;48.764;9.176;2023-01-24T15:16:47;39.00;32.25;15.00
26185;PMS7003;20067;48.764;9.176;2023-01-24T15:19:20;30.00;27.00;12.50
26185;PMS7003;20067;48.764;9.176;2023-01-24T15:21:49;36.00;33.50;15.50
26185;PMS7003;20067;48.764;9.176;2023-01-24T15:26:53;32.25;28.75;12.00
26185;PMS7003;20067;48.764;9.176;2023-01-24T15:46:18;28.00;23.75;10.75
26185;PMS7003;20067;48.764;9.176;2023-01-24T15:51:41;35.00;30.00;16.00
26185;PMS7003;20067;48.764;9.176;2023-01-24T15:54:12;32.50;28.50;10.25
26185;PMS7003;20067;48.764;9.176;2023-01-24T15:56:39;35.75;30.75;14.75
26185;PMS7003;20067;48.764;9.176;2023-01-24T15:59:14;41.75;37.75;15.75
26185;PMS7003;20067;48.764;9.176;2023-01-24T16:01:42;37.25;30.25;12.25
26185;PMS7003;20067;48.764;9.176;2023-01-24T16:04:09;36.50;32.75;14.75
26185;PMS7003;20067;48.764;9.176;2023-01-24T16:06:38;39.75;34.75;15.50
26185;PMS7003;20067;48.764;9.176;2023-01-24T16:09:04;52.50;38.50;15.75
26185;PMS7003;20067;48.764;9.176;2023-01-24T16:11:30;36.50;31.00;15.50
26185;PMS7003;20067;48.764;9.176;2023-01-24T16:13:56;43.75;34.75;17.00
26185;PMS7003;20067;48.764;9.176;2023-01-24T16:16:22;37.25;31.75;15.50
26185;PMS7003;20067;48.764;9.176;2023-01-24T16:18:48;33.25;26.75;15.00
26185;PMS7003;20067;48.764;9.176;2023-01-24T16:21:14;39.25;32.75;20.00
26185;PMS7003;20067;48.764;9.176;2023-01-24T16:23:40;45.25;30.75;16.00
26185;PMS7003;20067;48.764;9.176;2023-01-24T16:26:07;42.50;35.50;20.50